Time;durP1;ratioP1;P1;durP2;ratioP2;P2;SDS_P1;SDS_P2;PMS_P1;PMS_P2;Temp;Humidity;BMP_temperature;BMP_pressure;BME280_temperature;BME280_humidity;BME280_pressure;Samples;Min_cycle;Max_cycle;Signal;HPM_P1;HPM_P2
2022/01/07 00:02:21;;;;;;;15.10;5.40;;;;;;;-3.68;77.32;100172.02;208118;1318;141370;-69
2022/01/07 00:07:35;;;;;;;15.40;7.20;;;;;;;-3.70;77.19;100172.57;209564;1316;139772;-69
2022/01/07 00:12:39;;;;;;;13.90;5.80;;;;;;;-3.65;77.18;100174.79;208833;1316;141344;-70
2022/01/07 00:17:41;;;;;;;12.30;6.80;;;;;;;-3.57;77.39;100173.71;209775;1318;141034;-75
2022/01/07 00:22:45;;;;;;;16.80;8.40;;;;;;;-3.51;77.38;100169.86;208781;1316;140383;-69
2022/01/07 00:27:49;;;;;;;11.70;6.60;;;;;;;-3.48;77.58;100170.48;208406;1316;142768;-70
2022/01/07 00:32:53;;;;;;;13.40;6.10;;;;;;;-3.49;77.50;100176.27;208190;1316;141698;-70
2022/01/07 00:37:55;;;;;;;18.50;7.40;;;;;;;-3.53;77.43;100175.92;208557;1315;140952;-70
2022/01/07 00:42:59;;;;;;;20.70;7.10;;;;;;;-3.59;77.48;100173.84;207162;1316;163155;-67
2022/01/07 00:48:05;;;;;;;13.30;7.50;;;;;;;-3.66;77.65;100179.86;207775;1316;141002;-66
2022/01/07 00:53:08;;;;;;;16.10;6.40;;;;;;;-3.67;77.59;100178.23;207630;1316;141880;-67
2022/01/07 00:58:11;;;;;;;17.90;8.00;;;;;;;-3.65;77.63;100180.10;207227;1316;141848;-65
2022/01/07 01:03:14;;;;;;;17.20;7.90;;;;;;;-3.66;77.73;100179.33;207070;1315;140859;-66
2022/01/07 01:08:17;;;;;;;17.90;8.30;;;;;;;-3.68;77.82;100179.04;207119;1316;142623;-65
2022/01/07 01:13:21;;;;;;;14.40;7.10;;;;;;;-3.73;77.94;100182.23;207135;1316;236768;-70
2022/01/07 01:18:24;;;;;;;17.80;7.80;;;;;;;-3.78;77.95;100183.31;207198;1316;142591;-67
2022/01/07 01:23:29;;;;;;;18.60;7.50;;;;;;;-3.83;78.22;100178.36;208280;1316;142566;-69
2022/01/07 01:28:33;;;;;;;15.50;7.00;;;;;;;-3.82;77.99;100175.70;207838;1316;142081;-65
2022/01/07 01:33:36;;;;;;;19.10;8.10;;;;;;;-3.83;77.98;100167.59;206944;1316;140409;-65
2022/01/07 01:38:40;;;;;;;15.30;7.80;;;;;;;-3.80;78.13;100170.49;208076;1315;140329;-69
2022/01/07 01:43:45;;;;;;;19.50;8.00;;;;;;;-3.82;78.33;100175.53;207057;1318;140611;-66
2022/01/07 01:48:56;;;;;;;19.00;8.80;;;;;;;-3.86;78.12;100177.41;206917;1315;142000;-67
2022/01/07 01:54:01;;;;;;;22.40;7.60;;;;;;;-3.91;78.50;100176.65;209407;1316;141033;-67
2022/01/07 01:59:03;;;;;;;17.40;8.70;;;;;;;-3.98;78.28;100181.73;207737;1315;140898;-67
2022/01/07 02:04:12;;;;;;;20.60;9.00;;;;;;;-3.97;78.24;100182.59;207810;1316;142321;-68
2022/01/07 02:09:16;;;;;;;18.10;7.60;;;;;;;-3.97;78.41;100186.71;208363;1317;142094;-68
2022/01/07 02:14:20;;;;;;;20.80;9.50;;;;;;;-3.96;78.42;100186.63;208247;1317;141264;-68
2022/01/07 02:19:24;;;;;;;17.00;7.60;;;;;;;-3.98;78.36;100182.77;209190;1316;140819;-66
2022/01/07 02:24:33;;;;;;;15.50;6.30;;;;;;;-4.02;78.31;100183.36;209401;1316;141021;-66
2022/01/07 02:29:36;;;;;;;52.80;31.10;;;;;;;-4.04;78.49;100176.94;208759;1316;140723;-67
2022/01/07 02:34:39;;;;;;;21.70;13.20;;;;;;;-4.06;78.42;100172.60;208875;1316;141322;-67
2022/01/07 02:39:45;;;;;;;25.00;10.60;;;;;;;-4.03;78.20;100174.20;207611;1316;142091;-66
2022/01/07 02:44:48;;;;;;;19.70;7.40;;;;;;;-4.00;78.28;100181.59;207146;1315;143041;-66
2022/01/07 02:49:53;;;;;;;21.20;8.90;;;;;;;-4.03;78.22;100176.86;207676;1316;142091;-67
2022/01/07 02:54:55;;;;;;;17.50;9.50;;;;;;;-4.10;78.31;100173.21;207696;1317;141368;-66
2022/01/07 02:59:58;;;;;;;26.20;8.00;;;;;;;-4.15;78.43;100175.77;207881;1316;141093;-68
2022/01/07 03:05:05;;;;;;;26.50;10.60;;;;;;;-4.20;78.42;100176.05;207332;1316;141714;-67
2022/01/07 03:10:09;;;;;;;21.00;8.90;;;;;;;-4.27;78.43;100174.50;207517;1316;141409;-65
2022/01/07 03:15:14;;;;;;;17.70;7.60;;;;;;;-4.25;78.42;100172.81;207428;1316;142229;-65
2022/01/07 03:20:19;;;;;;;18.80;8.40;;;;;;;-4.22;78.36;100167.33;207060;1316;140882;-65
2022/01/07 03:25:22;;;;;;;16.50;8.40;;;;;;;-4.20;78.74;100164.91;207606;1316;140410;-68
2022/01/07 03:30:29;;;;;;;18.00;7.90;;;;;;;-4.21;78.63;100166.05;207296;1315;140462;-68
2022/01/07 03:35:33;;;;;;;16.20;6.90;;;;;;;-4.25;78.77;100169.48;206981;1317;141647;-68
2022/01/07 03:40:40;;;;;;;14.20;6.00;;;;;;;-4.32;78.77;100173.71;207304;1316;141865;-67
2022/01/07 03:46:02;;;;;;;16.10;8.80;;;;;;;-4.39;78.80;100181.91;207188;1316;143071;-68
2022/01/07 03:51:12;;;;;;;19.50;7.90;;;;;;;-4.37;78.78;100182.83;207719;1317;140698;-67
2022/01/07 03:56:20;;;;;;;21.10;9.70;;;;;;;-4.30;79.05;100176.52;207339;1316;140661;-67
2022/01/07 04:01:33;;;;;;;17.30;9.70;;;;;;;-4.23;79.25;100179.02;207105;1317;140531;-68
2022/01/07 04:06:42;;;;;;;13.50;8.00;;;;;;;-4.23;79.13;100173.63;207972;1315;140056;-68
2022/01/07 04:11:46;;;;;;;14.70;7.10;;;;;;;-4.26;79.16;100173.70;208006;1316;140001;-67
2022/01/07 04:16:49;;;;;;;17.40;7.60;;;;;;;-4.30;79.14;100164.77;209110;1317;140841;-68
2022/01/07 04:21:51;;;;;;;25.20;8.40;;;;;;;-4.28;79.06;100160.73;208641;1317;141460;-67
2022/01/07 04:26:54;;;;;;;89.70;39.20;;;;;;;-4.20;79.00;100163.45;209184;1319;140394;-68
2022/01/07 04:31:57;;;;;;;36.40;20.90;;;;;;;-4.15;79.29;100164.65;208717;1316;140252;-67
2022/01/07 04:37:02;;;;;;;22.90;12.40;;;;;;;-4.12;79.17;100152.20;208288;1318;141085;-66
2022/01/07 04:42:08;;;;;;;21.00;11.30;;;;;;;-4.10;79.15;100147.06;208906;1318;141021;-69
2022/01/07 04:47:10;;;;;;;18.80;7.80;;;;;;;-4.10;79.15;100146.30;208527;1316;139926;-71
2022/01/07 04:52:16;;;;;;;13.90;9.40;;;;;;;-4.11;79.13;100142.77;207269;1316;139763;-69
2022/01/07 04:57:19;;;;;;;15.90;8.50;;;;;;;-4.07;79.07;100137.77;206943;1316;141376;-69
2022/01/07 05:02:22;;;;;;;18.90;9.40;;;;;;;-4.02;79.20;100128.66;207783;1316;141208;-68
2022/01/07 05:07:26;;;;;;;17.20;9.40;;;;;;;-3.98;79.52;100134.16;207323;1316;139743;-69
2022/01/07 05:12:30;;;;;;;18.20;8.70;;;;;;;-3.97;79.56;100133.59;207498;1316;140322;-72
2022/01/07 05:17:34;;;;;;;16.60;10.10;;;;;;;-3.98;79.67;100137.81;207526;1316;141684;-71
2022/01/07 05:22:38;;;;;;;21.00;8.60;;;;;;;-3.98;79.76;100140.13;207292;1316;140751;-71
2022/01/07 05:27:42;;;;;;;15.20;8.40;;;;;;;-3.94;79.67;100123.42;207426;1316;140240;-68
2022/01/07 05:32:46;;;;;;;22.70;9.70;;;;;;;-3.91;79.67;100116.02;207226;1315;141325;-68
2022/01/07 05:37:49;;;;;;;17.70;9.10;;;;;;;-3.91;79.81;100117.63;207201;1315;140429;-69
2022/01/07 05:42:53;;;;;;;20.70;10.60;;;;;;;-3.92;79.88;100126.20;207740;1315;140896;-69
2022/01/07 05:47:58;;;;;;;18.00;9.10;;;;;;;-3.94;79.80;100129.48;207053;1318;140957;-68
2022/01/07 05:53:01;;;;;;;18.90;8.10;;;;;;;-3.97;79.91;100123.48;206901;1318;1397922;-69
2022/01/07 05:58:04;;;;;;;22.10;10.00;;;;;;;-3.92;79.99;100124.94;207052;1318;141371;-66
2022/01/07 06:03:13;;;;;;;19.00;8.90;;;;;;;-3.85;79.88;100129.19;207452;1316;141205;-68
2022/01/07 06:08:17;;;;;;;18.10;9.20;;;;;;;-3.82;79.91;100129.14;208264;1315;140695;-70
2022/01/07 06:13:22;;;;;;;14.10;7.50;;;;;;;-3.84;79.88;100125.52;207051;1316;140134;-67
2022/01/07 06:18:25;;;;;;;13.10;7.50;;;;;;;-3.87;79.98;100118.11;207395;1317;139606;-69
2022/01/07 06:23:28;;;;;;;16.50;8.30;;;;;;;-3.88;80.13;100123.23;207111;1315;140084;-68
2022/01/07 06:28:31;;;;;;;15.40;8.40;;;;;;;-3.85;80.18;100126.62;208889;1317;141566;-68
2022/01/07 06:33:34;;;;;;;13.60;6.80;;;;;;;-3.74;80.07;100126.38;209553;1320;140676;-67
2022/01/07 06:38:36;;;;;;;17.20;7.50;;;;;;;-3.59;79.98;100128.20;209112;1314;140049;-67
2022/01/07 06:43:39;;;;;;;13.00;7.10;;;;;;;-3.44;80.27;100132.27;208312;1317;139815;-67
2022/01/07 06:48:44;;;;;;;11.20;7.70;;;;;;;-3.31;80.03;100138.86;208045;1316;139872;-67
2022/01/07 06:53:48;;;;;;;10.30;6.80;;;;;;;-3.22;79.96;100136.20;207333;1316;140719;-67
2022/01/07 06:58:52;;;;;;;14.50;7.70;;;;;;;-3.16;80.02;100139.67;208007;1316;231042;-67
2022/01/07 07:03:54;;;;;;;10.70;6.90;;;;;;;-3.08;79.92;100143.24;206751;1318;139844;-67
2022/01/07 07:08:56;;;;;;;10.80;7.50;;;;;;;-3.00;79.75;100155.73;207226;1317;140653;-67
2022/01/07 07:14:03;;;;;;;19.70;9.30;;;;;;;-2.88;79.44;100162.20;207495;1318;140791;-67
2022/01/07 07:19:05;;;;;;;13.70;7.00;;;;;;;-2.77;79.37;100150.71;207956;1316;140515;-67
2022/01/07 07:24:11;;;;;;;15.80;7.90;;;;;;;-2.66;79.32;100153.73;207568;1316;139889;-66
2022/01/07 07:29:14;;;;;;;11.80;6.30;;;;;;;-2.60;79.07;100156.48;207223;1316;140823;-66
2022/01/07 07:39:18;;;;;;;12.60;6.60;;;;;;;-2.48;78.85;100144.73;207092;1316;140737;-66
2022/01/07 07:44:20;;;;;;;13.90;6.80;;;;;;;-2.36;78.33;100137.24;207294;1316;142865;-68
2022/01/07 07:49:23;;;;;;;19.50;6.70;;;;;;;-2.29;78.34;100139.67;206787;1318;142846;-71
2022/01/07 07:54:25;;;;;;;14.10;7.00;;;;;;;-2.23;78.35;100132.48;207404;1316;140585;-67
2022/01/07 07:59:31;;;;;;;13.20;7.30;;;;;;;-2.20;78.10;100135.04;207748;1316;141153;-67
2022/01/07 08:04:34;;;;;;;337.70;114.90;;;;;;;-2.19;78.08;100141.85;207717;1316;139850;-69
2022/01/07 08:09:39;;;;;;;18.20;12.40;;;;;;;-2.18;77.79;100153.66;207220;1316;140923;-73
2022/01/07 08:20:04;;;;;;;7.90;5.80;;;;;;;-2.04;77.55;100155.23;209079;1316;140703;-71
2022/01/07 08:25:07;;;;;;;14.10;6.70;;;;;;;-1.94;77.43;100150.67;209359;1316;142114;-69
2022/01/07 08:30:21;;;;;;;10.80;6.20;;;;;;;-1.82;77.18;100150.53;209333;1316;139984;-69
2022/01/07 08:35:24;;;;;;;15.70;7.10;;;;;;;-1.71;76.95;100147.42;209289;1314;143187;-73
2022/01/07 08:40:29;;;;;;;11.30;6.10;;;;;;;-1.57;76.48;100135.94;208861;1315;141238;-71
2022/01/07 08:45:34;;;;;;;11.40;6.00;;;;;;;-1.44;76.07;100133.70;209554;1316;141313;-74
2022/01/07 08:50:44;;;;;;;11.10;5.00;;;;;;;-1.32;75.84;100135.98;208530;1316;143831;-70
2022/01/07 08:55:47;;;;;;;18.30;7.50;;;;;;;-1.24;75.49;100129.23;208307;1316;141382;-70
2022/01/07 09:00:53;;;;;;;20.00;6.60;;;;;;;-1.18;75.31;100127.99;207838;1316;142807;-71
2022/01/07 09:05:56;;;;;;;12.30;5.60;;;;;;;-1.16;74.89;100128.60;207670;1316;152420;-74
2022/01/07 09:11:00;;;;;;;15.30;6.50;;;;;;;-1.08;74.81;100126.08;207160;1316;141413;-71
2022/01/07 09:16:06;;;;;;;13.80;8.70;;;;;;;-0.99;74.66;100128.08;207699;1316;142023;-74
2022/01/07 09:21:12;;;;;;;11.40;5.20;;;;;;;-0.90;74.21;100121.92;207067;1316;141393;-73
2022/01/07 09:26:16;;;;;;;8.40;6.70;;;;;;;-0.81;74.10;100119.45;207163;1315;141446;-73
2022/01/07 09:31:19;;;;;;;12.40;4.70;;;;;;;-0.68;74.10;100120.40;206996;1316;140822;-68
2022/01/07 09:36:23;;;;;;;11.50;5.80;;;;;;;-0.57;73.62;100121.71;207177;1318;140420;-69
2022/01/07 09:41:30;;;;;;;12.30;6.20;;;;;;;-0.45;73.59;100118.59;207161;1313;141035;-72
2022/01/07 09:46:39;;;;;;;13.20;4.60;;;;;;;-0.34;73.12;100114.73;207761;1319;141007;-74
2022/01/07 09:51:47;;;;;;;9.90;5.30;;;;;;;-0.28;73.17;100111.02;206849;1317;163516;-67
2022/01/07 09:56:52;;;;;;;11.40;5.90;;;;;;;-0.21;73.03;100099.92;206788;1317;162533;-70
2022/01/07 10:02:11;;;;;;;7.30;3.60;;;;;;;-0.09;72.82;100096.61;208421;1318;142681;-71
2022/01/07 10:07:24;;;;;;;9.90;4.30;;;;;;;-0.01;72.42;100100.84;206965;1316;159343;-73
2022/01/07 10:12:29;;;;;;;12.70;5.30;;;;;;;0.12;72.31;100094.91;207897;1317;143153;-73
2022/01/07 10:17:52;;;;;;;9.40;4.90;;;;;;;0.25;72.03;100084.16;207152;1316;141815;-73
2022/01/07 10:23:13;;;;;;;9.40;3.90;;;;;;;0.32;71.82;100078.61;206976;1317;140583;-76
2022/01/07 10:28:22;;;;;;;12.30;5.50;;;;;;;0.41;71.88;100076.86;208443;1318;140919;-75
2022/01/07 10:33:35;;;;;;;15.20;6.00;;;;;;;0.47;71.54;100068.88;207402;1317;141251;-76
2022/01/07 10:39:14;;;;;;;16.50;7.80;;;;;;;0.62;71.56;100068.11;207631;1318;141493;-77
2022/01/07 10:44:17;;;;;;;18.10;7.10;;;;;;;0.72;71.29;100061.85;209291;1315;140573;-76
2022/01/07 10:49:35;;;;;;;9.40;5.40;;;;;;;0.77;71.30;100051.54;207832;1318;139809;-73
2022/01/07 10:54:44;;;;;;;8.90;5.10;;;;;;;0.82;71.07;100042.78;208351;1317;140575;-72
2022/01/07 11:00:08;;;;;;;7.70;5.20;;;;;;;0.86;70.56;100035.00;208862;1316;141486;-73
2022/01/07 11:05:11;;;;;;;6.70;5.70;;;;;;;0.94;70.64;100040.33;208696;1316;141375;-75
2022/01/07 11:10:17;;;;;;;10.30;5.50;;;;;;;1.01;70.39;100048.73;208564;1316;139120;-71
2022/01/07 11:15:22;;;;;;;13.40;7.60;;;;;;;1.05;70.26;100048.36;207559;1316;140965;-74
2022/01/07 11:20:28;;;;;;;8.90;5.40;;;;;;;1.09;70.43;100049.48;207656;1316;140529;-70
2022/01/07 11:25:32;;;;;;;14.30;5.60;;;;;;;1.13;70.11;100046.00;207642;1316;139937;-68
2022/01/07 11:30:36;;;;;;;12.70;4.70;;;;;;;1.15;70.31;100031.47;207990;1316;140030;-72
2022/01/07 11:35:50;;;;;;;11.20;5.90;;;;;;;1.23;70.29;100031.44;208180;1318;203523;-70
2022/01/07 11:40:55;;;;;;;9.50;6.00;;;;;;;1.34;70.06;100037.26;207341;1316;140640;-70
2022/01/07 11:46:01;;;;;;;11.10;5.20;;;;;;;1.47;70.07;100038.81;207955;1316;139126;-77
2022/01/07 11:51:13;;;;;;;10.60;5.90;;;;;;;1.56;69.87;100033.19;208301;1318;140227;-69
2022/01/07 11:56:26;;;;;;;14.20;6.80;;;;;;;1.69;69.42;100026.19;207857;1316;140802;-74
2022/01/07 12:01:35;;;;;;;12.10;7.20;;;;;;;1.83;69.20;100018.66;207754;1316;139892;-70
2022/01/07 12:06:39;;;;;;;9.30;5.70;;;;;;;1.87;69.25;100016.11;207731;1316;141709;-77
2022/01/07 12:11:54;;;;;;;12.00;6.10;;;;;;;1.84;68.88;100012.05;207082;1316;140760;-72
2022/01/07 12:17:13;;;;;;;14.30;7.90;;;;;;;1.78;69.08;100007.46;207259;1316;143568;-67
2022/01/07 12:22:20;;;;;;;18.00;8.20;;;;;;;1.76;68.79;100007.34;207270;1316;142192;-72
2022/01/07 12:27:29;;;;;;;13.30;5.90;;;;;;;1.71;68.90;99995.17;207785;1316;140655;-71
2022/01/07 12:32:38;;;;;;;10.60;6.10;;;;;;;1.73;68.57;99990.36;208013;1316;206919;-75
2022/01/07 12:37:43;;;;;;;12.80;6.80;;;;;;;1.80;69.03;99985.94;207127;1315;141790;-68
2022/01/07 12:42:51;;;;;;;12.40;6.90;;;;;;;1.80;68.68;99980.09;207422;1316;140314;-69
2022/01/07 12:48:07;;;;;;;12.60;6.30;;;;;;;1.72;68.40;99975.75;208592;1314;140392;-68
2022/01/07 12:53:14;;;;;;;8.90;5.60;;;;;;;1.68;68.27;99967.71;208119;1317;139883;-70
2022/01/07 12:58:52;;;;;;;6.70;4.80;;;;;;;1.69;68.14;99966.80;209226;1316;141730;-72
2022/01/07 13:04:09;;;;;;;9.60;5.00;;;;;;;1.68;68.28;99965.09;209486;1316;141794;-71
2022/01/07 13:09:24;;;;;;;15.40;7.20;;;;;;;1.61;68.16;99956.31;207875;1320;141233;-72
2022/01/07 13:14:33;;;;;;;14.60;5.10;;;;;;;1.53;68.05;99953.90;207853;1316;142277;-71
2022/01/07 13:19:49;;;;;;;10.20;4.80;;;;;;;1.45;67.18;99942.90;207696;1316;140703;-67
2022/01/07 13:24:57;;;;;;;11.40;5.00;;;;;;;1.34;67.76;99936.93;207257;1316;139232;-67
2022/01/07 13:30:06;;;;;;;15.00;6.00;;;;;;;1.23;67.11;99934.96;207073;1318;139389;-73
2022/01/07 13:35:12;;;;;;;10.80;5.50;;;;;;;1.12;67.48;99928.02;207569;1316;141037;-68
2022/01/07 13:40:28;;;;;;;11.30;7.70;;;;;;;1.02;67.56;99927.48;207854;1318;139510;-69
2022/01/07 13:45:32;;;;;;;15.10;6.00;;;;;;;0.91;67.42;99920.73;207906;1315;140705;-67
2022/01/07 13:50:46;;;;;;;15.60;7.60;;;;;;;0.87;67.76;99915.67;207618;1315;140222;-67
2022/01/07 13:55:51;;;;;;;18.80;8.80;;;;;;;0.84;68.12;99919.41;207286;1316;532879;-67
2022/01/07 14:01:08;;;;;;;23.50;8.80;;;;;;;0.77;68.06;99914.77;207037;1316;140055;-74
2022/01/07 14:06:19;;;;;;;16.30;8.50;;;;;;;0.68;68.31;99915.88;207365;1316;139378;-70
2022/01/07 14:11:24;;;;;;;16.10;8.70;;;;;;;0.57;68.33;99917.39;207578;1318;139735;-67
2022/01/07 14:16:31;;;;;;;12.40;7.10;;;;;;;0.46;68.34;99918.99;207430;1316;139900;-71
2022/01/07 14:21:38;;;;;;;23.20;9.30;;;;;;;0.36;68.45;99914.84;208472;1316;140627;-69
2022/01/07 14:26:47;;;;;;;17.20;6.80;;;;;;;0.27;68.63;99910.59;207441;1318;140618;-69
2022/01/07 14:31:53;;;;;;;14.00;7.20;;;;;;;0.16;68.50;99911.01;206900;1318;139247;-73
2022/01/07 14:36:59;;;;;;;16.20;8.70;;;;;;;0.08;68.90;99918.20;208020;1317;139571;-69
2022/01/07 14:42:09;;;;;;;20.90;8.40;;;;;;;0.00;69.10;99919.48;207870;1318;140030;-71
2022/01/07 14:47:19;;;;;;;20.10;9.90;;;;;;;-0.08;68.85;99921.28;208661;1319;140416;-70
2022/01/07 14:52:28;;;;;;;17.90;7.70;;;;;;;-0.18;69.01;99928.27;208828;1314;139349;-68
2022/01/07 14:57:35;;;;;;;26.40;11.80;;;;;;;-0.26;69.32;99928.92;209597;1319;139793;-78
2022/01/07 15:02:42;;;;;;;24.70;13.10;;;;;;;-0.25;69.25;99931.84;209130;1316;141500;-74
2022/01/07 15:07:47;;;;;;;29.00;13.00;;;;;;;-0.25;69.37;99930.37;208899;1316;140076;-72
2022/01/07 15:12:51;;;;;;;22.10;10.40;;;;;;;-0.32;69.48;99921.33;208266;1316;150485;-75
2022/01/07 15:17:56;;;;;;;27.90;13.80;;;;;;;-0.39;69.46;99920.73;208592;1314;139829;-75
2022/01/07 15:23:12;;;;;;;16.70;9.90;;;;;;;-0.45;69.62;99912.52;207615;1317;142269;-69
2022/01/07 15:28:15;;;;;;;22.00;11.50;;;;;;;-0.51;69.66;99905.52;208251;1318;141279;-70
2022/01/07 15:33:22;;;;;;;25.10;12.70;;;;;;;-0.49;69.82;99903.44;207386;1318;142627;-71
2022/01/07 15:38:35;;;;;;;21.00;11.90;;;;;;;-0.49;69.75;99892.20;208062;1316;139840;-74
2022/01/07 15:43:41;;;;;;;18.80;11.30;;;;;;;-0.49;70.14;99893.62;208041;1319;140154;-77
2022/01/07 15:48:49;;;;;;;19.20;9.70;;;;;;;-0.52;69.93;99889.88;207046;1315;143140;-77
2022/01/07 15:54:06;;;;;;;26.20;13.30;;;;;;;-0.60;70.02;99886.23;207142;1316;140163;-70
2022/01/07 15:59:13;;;;;;;20.20;11.30;;;;;;;-0.62;70.28;99882.23;207127;1317;139715;-69
2022/01/07 16:04:19;;;;;;;20.50;10.80;;;;;;;-0.64;70.36;99877.55;207578;1315;140019;-70
2022/01/07 16:09:26;;;;;;;20.20;10.00;;;;;;;-0.69;70.40;99874.95;207406;1319;140120;-77
2022/01/07 16:14:34;;;;;;;21.50;10.90;;;;;;;-0.69;70.45;99879.46;207716;1316;140125;-72
2022/01/07 16:19:39;;;;;;;;;;;;;;;-0.66;70.22;99876.92;207020;1318;140875;-71
2022/01/07 16:24:45;;;;;;;21.20;11.60;;;;;;;-0.67;70.47;99875.11;208082;1318;126777;-67
2022/01/07 16:29:52;;;;;;;21.60;10.70;;;;;;;-0.65;70.55;99871.42;207005;1318;140425;-72
2022/01/07 16:34:56;;;;;;;17.90;9.90;;;;;;;-0.65;70.50;99870.94;207524;1315;142535;-76
2022/01/07 16:40:01;;;;;;;27.60;10.40;;;;;;;-0.72;70.25;99861.10;208440;1315;139843;-75
2022/01/07 16:45:08;;;;;;;18.90;11.30;;;;;;;-0.78;70.39;99858.91;207953;1316;139718;-75
2022/01/07 16:50:12;;;;;;;15.80;8.80;;;;;;;-0.79;70.52;99852.95;208144;1318;140502;-71
2022/01/07 16:55:16;;;;;;;18.30;9.70;;;;;;;-0.78;70.47;99854.10;207855;1315;139190;-77
2022/01/07 17:00:21;;;;;;;22.60;11.00;;;;;;;-0.71;70.54;99853.51;207566;1312;140261;-73
2022/01/07 17:05:24;;;;;;;31.40;11.80;;;;;;;-0.69;70.57;99847.56;208290;1316;139852;-74
2022/01/07 17:10:32;;;;;;;21.70;11.70;;;;;;;-0.70;70.49;99847.13;207945;1318;141336;-67
2022/01/07 17:15:37;;;;;;;25.30;19.10;;;;;;;-0.72;70.58;99844.54;208316;1318;140175;-70
2022/01/07 17:20:47;;;;;;;26.00;13.10;;;;;;;-0.77;70.50;99847.30;209090;1318;143036;-71
2022/01/07 17:26:00;;;;;;;17.30;8.40;;;;;;;-0.82;70.33;99842.66;209273;1318;139857;-71
2022/01/07 17:31:08;;;;;;;19.80;10.40;;;;;;;-0.83;70.32;99837.55;208365;1316;143650;-68
2022/01/07 17:36:12;;;;;;;25.50;11.40;;;;;;;-0.78;70.09;99835.58;209102;1313;140990;-72
2022/01/07 17:41:18;;;;;;;26.60;12.50;;;;;;;-0.76;69.91;99832.39;209134;1318;140849;-69
2022/01/07 17:46:23;;;;;;;17.60;10.00;;;;;;;-0.73;70.11;99833.64;207960;1314;140192;-70
2022/01/07 17:51:30;;;;;;;26.50;10.40;;;;;;;-0.72;70.01;99831.32;207694;1316;140952;-71
2022/01/07 17:56:35;;;;;;;27.50;11.70;;;;;;;-0.77;69.86;99826.79;207648;1314;141161;-68
2022/01/07 18:01:37;;;;;;;11.70;6.20;;;;;;;-0.82;69.82;99824.80;207278;1318;229648;-74
2022/01/07 18:06:40;;;;;;;21.10;9.60;;;;;;;-0.89;69.54;99818.27;207485;1316;143421;-72
2022/01/07 18:11:44;;;;;;;19.60;8.60;;;;;;;-0.91;69.62;99810.65;207029;1316;143535;-73
2022/01/07 18:16:47;;;;;;;20.50;11.40;;;;;;;-0.95;69.81;99808.23;207390;1316;139532;-71
2022/01/07 18:21:51;;;;;;;19.90;10.80;;;;;;;-0.99;69.65;99802.52;207224;1315;142510;-68
2022/01/07 18:26:54;;;;;;;19.20;8.90;;;;;;;-1.03;69.62;99800.61;207840;1313;141995;-67
2022/01/07 18:31:59;;;;;;;15.30;8.70;;;;;;;-1.08;69.32;99797.35;207047;1318;141960;-71
2022/01/07 18:37:07;;;;;;;23.70;10.20;;;;;;;-1.11;69.37;99795.41;207662;1317;141545;-70
2022/01/07 18:42:15;;;;;;;12.70;6.60;;;;;;;-1.17;69.38;99794.27;207030;1316;141866;-68
2022/01/07 18:47:27;;;;;;;17.40;9.10;;;;;;;-1.20;69.28;99788.27;207682;1316;140459;-69
2022/01/07 18:52:34;;;;;;;14.90;8.40;;;;;;;-1.20;68.83;99791.65;208050;1315;141094;-66
2022/01/07 18:57:39;;;;;;;17.40;8.60;;;;;;;-1.21;68.80;99794.23;208199;1315;142086;-66
2022/01/07 19:02:43;;;;;;;17.60;9.30;;;;;;;-1.23;68.87;99788.48;207470;1318;140731;-72
2022/01/07 19:07:51;;;;;;;14.40;8.90;;;;;;;-1.25;68.77;99786.59;208550;1315;140651;-66
2022/01/07 19:12:57;;;;;;;12.20;7.80;;;;;;;-1.28;68.48;99786.92;207226;1316;140664;-66
2022/01/07 19:18:01;;;;;;;16.60;7.60;;;;;;;-1.30;68.52;99778.22;207131;1316;154824;-67
2022/01/07 19:23:04;;;;;;;19.00;7.30;;;;;;;-1.33;68.46;99777.78;208152;1316;140835;-69
2022/01/07 19:28:07;;;;;;;12.60;6.10;;;;;;;-1.38;68.07;99782.36;208830;1315;140222;-71
2022/01/07 19:33:12;;;;;;;20.60;8.00;;;;;;;-1.39;68.02;99781.67;208899;1313;141066;-71
2022/01/07 19:38:16;;;;;;;21.70;15.10;;;;;;;-1.34;67.94;99776.55;208846;1318;162728;-69
2022/01/07 19:43:27;;;;;;;21.60;11.50;;;;;;;-1.33;67.71;99775.34;208426;1318;143195;-69
2022/01/07 19:48:30;;;;;;;12.90;6.90;;;;;;;-1.29;67.76;99775.38;209086;1318;140533;-69
2022/01/07 19:53:34;;;;;;;18.20;7.20;;;;;;;-1.30;67.48;99772.96;207614;1315;142544;-67
2022/01/07 19:58:42;;;;;;;14.90;7.30;;;;;;;-1.31;67.37;99771.84;206910;1316;141640;-68
2022/01/07 20:03:47;;;;;;;13.50;6.40;;;;;;;-1.35;67.25;99771.01;206823;1316;140609;-68
2022/01/07 20:08:49;;;;;;;14.70;6.90;;;;;;;-1.41;67.07;99774.11;207158;1316;140254;-68
2022/01/07 20:13:56;;;;;;;13.50;6.70;;;;;;;-1.44;66.92;99767.39;207627;1316;139871;-68
2022/01/07 20:18:58;;;;;;;14.80;8.40;;;;;;;-1.45;66.81;99761.05;207516;1315;140572;-68
2022/01/07 20:24:00;;;;;;;13.30;6.60;;;;;;;-1.46;66.67;99760.48;207625;1316;140715;-69
2022/01/07 20:29:04;;;;;;;15.30;6.70;;;;;;;-1.49;66.49;99758.55;207643;1316;140761;-69
2022/01/07 20:34:06;;;;;;;18.90;9.10;;;;;;;-1.54;66.42;99751.42;206824;1318;141350;-68
2022/01/07 20:39:11;;;;;;;18.70;6.80;;;;;;;-1.56;66.54;99745.73;207407;1316;141067;-67
2022/01/07 20:44:17;;;;;;;13.10;7.50;;;;;;;-1.60;66.31;99746.59;206881;1316;140757;-67
2022/01/07 20:49:23;;;;;;;11.70;6.60;;;;;;;-1.62;66.17;99744.41;208033;1316;141978;-67
2022/01/07 20:54:26;;;;;;;17.30;7.10;;;;;;;-1.61;66.26;99750.41;207065;1316;141078;-68
2022/01/07 20:59:29;;;;;;;16.90;6.80;;;;;;;-1.58;66.17;99744.45;207062;1318;139496;-68
2022/01/07 21:04:31;;;;;;;11.10;5.80;;;;;;;-1.56;66.15;99750.27;207866;1316;140701;-67
2022/01/07 21:09:35;;;;;;;10.30;6.70;;;;;;;-1.57;66.03;99750.16;207517;1316;140062;-66
2022/01/07 21:14:38;;;;;;;15.70;7.30;;;;;;;-1.58;66.05;99742.41;208181;1316;139724;-67
2022/01/07 21:19:40;;;;;;;15.20;6.50;;;;;;;-1.60;65.98;99739.85;207342;1316;141466;-66
2022/01/07 21:24:43;;;;;;;13.50;5.70;;;;;;;-1.61;65.91;99733.64;207054;1317;140619;-67
2022/01/07 21:29:45;;;;;;;8.80;4.10;;;;;;;-1.62;66.02;99730.08;207000;1317;141145;-66
2022/01/07 21:34:48;;;;;;;23.00;8.00;;;;;;;-1.64;65.84;99725.23;207868;1315;140509;-72
2022/01/07 21:39:54;;;;;;;20.80;8.10;;;;;;;-1.60;65.85;99723.65;209596;1316;140780;-70
2022/01/07 21:44:56;;;;;;;16.50;7.50;;;;;;;-1.57;65.77;99724.19;208202;1316;141086;-72
2022/01/07 21:49:59;;;;;;;13.80;6.50;;;;;;;-1.54;65.96;99721.27;208981;1318;141217;-73
2022/01/07 21:55:07;;;;;;;11.90;6.70;;;;;;;-1.52;65.89;99716.17;208847;1318;305026;-72
2022/01/07 22:00:12;;;;;;;15.40;6.70;;;;;;;-1.52;66.11;99717.50;207810;1316;140452;-69
2022/01/07 22:05:17;;;;;;;16.10;7.40;;;;;;;-1.52;66.02;99714.98;206946;1318;141547;-70
2022/01/07 22:10:20;;;;;;;7.50;4.30;;;;;;;-1.55;66.01;99710.96;207370;1316;140672;-68
2022/01/07 22:15:23;;;;;;;19.30;6.90;;;;;;;-1.60;65.98;99709.02;207928;1316;142607;-73
2022/01/07 22:20:27;;;;;;;22.30;10.20;;;;;;;-1.59;65.97;99715.69;208153;1317;142254;-69
2022/01/07 22:25:36;;;;;;;15.70;8.60;;;;;;;-1.58;66.03;99711.35;207857;1316;140466;-72
2022/01/07 22:30:40;;;;;;;15.40;7.10;;;;;;;-1.57;66.04;99715.46;207293;1315;140279;-68
2022/01/07 22:35:46;;;;;;;19.90;7.60;;;;;;;-1.59;66.18;99714.51;207107;1315;140347;-66
2022/01/07 22:40:50;;;;;;;15.40;7.00;;;;;;;-1.63;66.15;99712.98;207518;1316;140900;-69
2022/01/07 22:45:56;;;;;;;14.30;7.50;;;;;;;-1.66;66.28;99710.48;207071;1316;140556;-68
2022/01/07 22:50:58;;;;;;;15.80;7.50;;;;;;;-1.68;66.19;99708.58;207089;1317;141216;-71
2022/01/07 22:56:02;;;;;;;14.30;7.50;;;;;;;-1.70;66.15;99713.08;207085;1317;141574;-68
2022/01/07 23:01:05;;;;;;;14.30;7.30;;;;;;;-1.67;66.04;99709.73;208395;1315;151753;-69
2022/01/07 23:06:29;;;;;;;15.00;9.70;;;;;;;-1.66;65.95;99707.86;207781;1316;139396;-72
2022/01/07 23:11:33;;;;;;;15.70;6.70;;;;;;;-1.66;66.02;99705.98;207011;1318;140362;-69
2022/01/07 23:16:41;;;;;;;17.80;6.40;;;;;;;-1.67;66.11;99705.84;208321;1313;140830;-71